sensor_id;sensor_type;location;lat;lon;timestamp;temperature;humidity
17845;DHT22;9047;53.486;10.218;2022-08-30T02:40:53;15.90;99.90
17845;DHT22;9047;53.486;10.218;2022-08-30T04:04:20;15.50;99.90
17845;DHT22;9047;53.486;10.218;2022-08-30T05:26:40;15.80;99.90
17845;DHT22;9047;53.486;10.218;2022-08-30T05:29:40;15.80;99.90
17845;DHT22;9047;53.486;10.218;2022-08-30T05:32:34;15.90;99.90
17845;DHT22;9047;53.486;10.218;2022-08-30T05:35:04;15.90;99.90
17845;DHT22;9047;53.486;10.218;2022-08-30T05:37:58;16.00;99.90
17845;DHT22;9047;53.486;10.218;2022-08-30T05:40:33;16.00;99.90
17845;DHT22;9047;53.486;10.218;2022-08-30T05:43:34;16.10;99.90
17845;DHT22;9047;53.486;10.218;2022-08-30T05:50:24;16.20;99.90
17845;DHT22;9047;53.486;10.218;2022-08-30T05:53:50;16.30;99.90
17845;DHT22;9047;53.486;10.218;2022-08-30T05:57:42;16.40;99.90
17845;DHT22;9047;53.486;10.218;2022-08-30T06:07:19;16.50;99.90
17845;DHT22;9047;53.486;10.218;2022-08-30T06:17:20;16.70;99.90
17845;DHT22;9047;53.486;10.218;2022-08-30T06:20:38;16.90;99.90
17845;DHT22;9047;53.486;10.218;2022-08-30T06:23:47;17.10;99.90
17845;DHT22;9047;53.486;10.218;2022-08-30T06:27:02;17.30;99.90
17845;DHT22;9047;53.486;10.218;2022-08-30T06:33:47;17.70;99.90
17845;DHT22;9047;53.486;10.218;2022-08-30T06:43:41;18.20;99.90
17845;DHT22;9047;53.486;10.218;2022-08-30T06:46:28;18.30;99.90
17845;DHT22;9047;53.486;10.218;2022-08-30T06:48:57;18.30;99.90
17845;DHT22;9047;53.486;10.218;2022-08-30T07:26:21;18.80;99.90
17845;DHT22;9047;53.486;10.218;2022-08-30T07:33:14;19.00;99.90
17845;DHT22;9047;53.486;10.218;2022-08-30T07:37:45;19.10;99.90
17845;DHT22;9047;53.486;10.218;2022-08-30T07:40:41;19.20;99.90
17845;DHT22;9047;53.486;10.218;2022-08-30T07:50:33;19.60;99.90
17845;DHT22;9047;53.486;10.218;2022-08-30T07:53:13;19.80;99.90
17845;DHT22;9047;53.486;10.218;2022-08-30T07:55:45;19.90;99.90
17845;DHT22;9047;53.486;10.218;2022-08-30T08:01:23;20.00;99.90
17845;DHT22;9047;53.486;10.218;2022-08-30T08:10:41;20.20;99.90
17845;DHT22;9047;53.486;10.218;2022-08-30T08:13:31;20.20;99.90
17845;DHT22;9047;53.486;10.218;2022-08-30T08:16:19;20.40;99.90
17845;DHT22;9047;53.486;10.218;2022-08-30T08:19:36;20.60;99.90
17845;DHT22;9047;53.486;10.218;2022-08-30T08:22:52;20.70;99.90
17845;DHT22;9047;53.486;10.218;2022-08-30T08:28:59;21.30;99.90
17845;DHT22;9047;53.486;10.218;2022-08-30T08:31:28;21.70;99.90
17845;DHT22;9047;53.486;10.218;2022-08-30T08:34:08;21.90;99.90
17845;DHT22;9047;53.486;10.218;2022-08-30T08:36:57;22.10;99.90
17845;DHT22;9047;53.486;10.218;2022-08-30T08:50:40;22.30;99.90
17845;DHT22;9047;53.486;10.218;2022-08-30T09:41:53;21.30;99.90
17845;DHT22;9047;53.486;10.218;2022-08-30T10:05:28;20.40;99.90
17845;DHT22;9047;53.486;10.218;2022-08-30T10:08:47;20.30;99.90
17845;DHT22;9047;53.486;10.218;2022-08-30T10:13:10;20.40;99.90
17845;DHT22;9047;53.486;10.218;2022-08-30T10:18:44;20.60;99.90
17845;DHT22;9047;53.486;10.218;2022-08-30T10:21:49;20.70;99.90
17845;DHT22;9047;53.486;10.218;2022-08-30T10:24:41;20.90;99.90
17845;DHT22;9047;53.486;10.218;2022-08-30T10:31:48;21.00;99.90
17845;DHT22;9047;53.486;10.218;2022-08-30T10:37:40;21.20;99.90
17845;DHT22;9047;53.486;10.218;2022-08-30T10:41:31;21.30;99.90
17845;DHT22;9047;53.486;10.218;2022-08-30T10:44:25;21.50;99.90
17845;DHT22;9047;53.486;10.218;2022-08-30T10:50:40;21.70;99.90
17845;DHT22;9047;53.486;10.218;2022-08-30T10:56:52;21.80;99.90
17845;DHT22;9047;53.486;10.218;2022-08-30T10:59:45;21.70;99.90
17845;DHT22;9047;53.486;10.218;2022-08-30T11:06:40;21.40;99.90
17845;DHT22;9047;53.486;10.218;2022-08-30T11:19:41;21.20;99.90
17845;DHT22;9047;53.486;10.218;2022-08-30T11:22:24;21.60;99.90
17845;DHT22;9047;53.486;10.218;2022-08-30T11:25:14;22.10;99.90
17845;DHT22;9047;53.486;10.218;2022-08-30T11:27:48;22.40;99.90
17845;DHT22;9047;53.486;10.218;2022-08-30T11:31:30;22.50;99.90
17845;DHT22;9047;53.486;10.218;2022-08-30T11:34:05;22.80;99.90
17845;DHT22;9047;53.486;10.218;2022-08-30T11:37:03;22.90;99.90
17845;DHT22;9047;53.486;10.218;2022-08-30T11:40:02;23.10;99.90
17845;DHT22;9047;53.486;10.218;2022-08-30T11:49:51;23.70;99.90
17845;DHT22;9047;53.486;10.218;2022-08-30T11:56:02;24.20;98.80
17845;DHT22;9047;53.486;10.218;2022-08-30T11:58:43;24.40;98.80
17845;DHT22;9047;53.486;10.218;2022-08-30T12:01:35;24.70;98.90
17845;DHT22;9047;53.486;10.218;2022-08-30T12:04:52;24.80;99.10
17845;DHT22;9047;53.486;10.218;2022-08-30T12:14:53;24.10;99.90
17845;DHT22;9047;53.486;10.218;2022-08-30T12:17:55;23.70;99.90
17845;DHT22;9047;53.486;10.218;2022-08-30T12:20:44;23.20;99.90
17845;DHT22;9047;53.486;10.218;2022-08-30T12:23:35;22.90;99.90
17845;DHT22;9047;53.486;10.218;2022-08-30T12:26:26;22.70;99.90
17845;DHT22;9047;53.486;10.218;2022-08-30T12:39:30;22.20;99.90
17845;DHT22;9047;53.486;10.218;2022-08-30T12:42:10;22.20;99.90
17845;DHT22;9047;53.486;10.218;2022-08-30T12:44:55;22.20;99.90
17845;DHT22;9047;53.486;10.218;2022-08-30T12:47:27;22.20;99.90
17845;DHT22;9047;53.486;10.218;2022-08-30T12:50:20;22.30;99.90
17845;DHT22;9047;53.486;10.218;2022-08-30T12:52:58;22.20;99.90
17845;DHT22;9047;53.486;10.218;2022-08-30T12:55:53;22.20;99.90
17845;DHT22;9047;53.486;10.218;2022-08-30T12:58:44;22.30;99.90
17845;DHT22;9047;53.486;10.218;2022-08-30T13:01:42;22.40;99.90
17845;DHT22;9047;53.486;10.218;2022-08-30T13:05:25;22.50;99.90
17845;DHT22;9047;53.486;10.218;2022-08-30T13:15:14;22.60;99.90
17845;DHT22;9047;53.486;10.218;2022-08-30T13:18:29;22.50;99.70
17845;DHT22;9047;53.486;10.218;2022-08-30T13:21:45;22.50;99.90
17845;DHT22;9047;53.486;10.218;2022-08-30T13:24:26;22.30;99.90
17845;DHT22;9047;53.486;10.218;2022-08-30T13:27:35;22.30;99.00
17845;DHT22;9047;53.486;10.218;2022-08-30T13:30:27;22.20;99.30
17845;DHT22;9047;53.486;10.218;2022-08-30T13:33:15;22.20;99.10
17845;DHT22;9047;53.486;10.218;2022-08-30T13:36:19;22.20;98.90
17845;DHT22;9047;53.486;10.218;2022-08-30T13:40:24;22.20;98.80
17845;DHT22;9047;53.486;10.218;2022-08-30T13:43:00;22.40;98.50
17845;DHT22;9047;53.486;10.218;2022-08-30T13:45:52;22.70;98.00
17845;DHT22;9047;53.486;10.218;2022-08-30T13:48:21;22.90;96.90
17845;DHT22;9047;53.486;10.218;2022-08-30T13:51:05;22.80;96.80
17845;DHT22;9047;53.486;10.218;2022-08-30T13:53:37;22.70;96.70
17845;DHT22;9047;53.486;10.218;2022-08-30T13:56:12;22.60;96.80
17845;DHT22;9047;53.486;10.218;2022-08-30T13:59:13;22.70;96.20
17845;DHT22;9047;53.486;10.218;2022-08-30T14:02:25;22.70;96.40
17845;DHT22;9047;53.486;10.218;2022-08-30T14:08:21;23.10;95.20
17845;DHT22;9047;53.486;10.218;2022-08-30T14:11:16;23.40;95.60
17845;DHT22;9047;53.486;10.218;2022-08-30T14:13:55;23.80;95.20
17845;DHT22;9047;53.486;10.218;2022-08-30T14:16:46;24.10;93.90
17845;DHT22;9047;53.486;10.218;2022-08-30T14:19:56;24.30;93.90
17845;DHT22;9047;53.486;10.218;2022-08-30T14:23:26;24.20;93.00
17845;DHT22;9047;53.486;10.218;2022-08-30T14:26:16;23.80;93.20
17845;DHT22;9047;53.486;10.218;2022-08-30T14:29:39;23.40;93.70
17845;DHT22;9047;53.486;10.218;2022-08-30T14:32:31;23.10;93.70
17845;DHT22;9047;53.486;10.218;2022-08-30T14:35:32;22.80;94.10
17845;DHT22;9047;53.486;10.218;2022-08-30T14:38:33;22.40;94.30
17845;DHT22;9047;53.486;10.218;2022-08-30T14:41:12;22.10;94.90
17845;DHT22;9047;53.486;10.218;2022-08-30T14:44:04;21.90;95.10
17845;DHT22;9047;53.486;10.218;2022-08-30T14:46:34;22.00;95.10
17845;DHT22;9047;53.486;10.218;2022-08-30T14:49:02;22.10;94.70
17845;DHT22;9047;53.486;10.218;2022-08-30T14:51:34;22.20;94.50
17845;DHT22;9047;53.486;10.218;2022-08-30T14:55:14;22.40;94.40
17845;DHT22;9047;53.486;10.218;2022-08-30T14:57:35;22.50;93.60
17845;DHT22;9047;53.486;10.218;2022-08-30T15:01:14;22.60;93.60
17845;DHT22;9047;53.486;10.218;2022-08-30T15:03:57;22.60;93.70
17845;DHT22;9047;53.486;10.218;2022-08-30T15:06:45;22.80;93.10
17845;DHT22;9047;53.486;10.218;2022-08-30T15:09:32;22.70;93.20
17845;DHT22;9047;53.486;10.218;2022-08-30T15:12:10;22.70;93.60
17845;DHT22;9047;53.486;10.218;2022-08-30T15:14:39;22.60;93.00
17845;DHT22;9047;53.486;10.218;2022-08-30T15:17:12;22.50;93.00
17845;DHT22;9047;53.486;10.218;2022-08-30T15:20:03;22.40;93.40
17845;DHT22;9047;53.486;10.218;2022-08-30T15:23:00;22.40;93.70
17845;DHT22;9047;53.486;10.218;2022-08-30T15:28:43;22.40;93.70
17845;DHT22;9047;53.486;10.218;2022-08-30T15:31:38;22.30;93.20
17845;DHT22;9047;53.486;10.218;2022-08-30T15:34:13;22.20;93.30
17845;DHT22;9047;53.486;10.218;2022-08-30T15:36:43;22.20;93.80
17845;DHT22;9047;53.486;10.218;2022-08-30T15:39:18;22.20;93.90
17845;DHT22;9047;53.486;10.218;2022-08-30T15:42:06;22.20;94.30
17845;DHT22;9047;53.486;10.218;2022-08-30T15:45:05;22.20;94.10
17845;DHT22;9047;53.486;10.218;2022-08-30T15:47:59;22.20;94.10
17845;DHT22;9047;53.486;10.218;2022-08-30T15:50:44;22.30;94.40
17845;DHT22;9047;53.486;10.218;2022-08-30T15:53:25;22.20;94.40
17845;DHT22;9047;53.486;10.218;2022-08-30T15:59:32;22.00;94.10
17845;DHT22;9047;53.486;10.218;2022-08-30T16:02:13;21.90;94.00
17845;DHT22;9047;53.486;10.218;2022-08-30T16:05:02;21.80;94.20
17845;DHT22;9047;53.486;10.218;2022-08-30T16:08:00;21.70;94.60
17845;DHT22;9047;53.486;10.218;2022-08-30T16:11:06;21.60;94.00
17845;DHT22;9047;53.486;10.218;2022-08-30T16:13:40;21.60;94.00
17845;DHT22;9047;53.486;10.218;2022-08-30T16:16:11;21.60;94.00
17845;DHT22;9047;53.486;10.218;2022-08-30T16:19:04;21.50;93.60
17845;DHT22;9047;53.486;10.218;2022-08-30T16:21:34;21.50;93.60
17845;DHT22;9047;53.486;10.218;2022-08-30T16:24:13;21.40;92.70
17845;DHT22;9047;53.486;10.218;2022-08-30T16:26:52;21.30;91.70
17845;DHT22;9047;53.486;10.218;2022-08-30T16:29:36;21.30;90.60
17845;DHT22;9047;53.486;10.218;2022-08-30T16:32:09;21.20;90.40
17845;DHT22;9047;53.486;10.218;2022-08-30T16:34:42;21.10;90.50
17845;DHT22;9047;53.486;10.218;2022-08-30T16:37:10;21.00;90.70
17845;DHT22;9047;53.486;10.218;2022-08-30T16:39:56;21.00;90.10
17845;DHT22;9047;53.486;10.218;2022-08-30T16:42:29;20.90;90.10
17845;DHT22;9047;53.486;10.218;2022-08-30T16:44:58;20.90;88.50
17845;DHT22;9047;53.486;10.218;2022-08-30T16:47:26;20.90;88.40
17845;DHT22;9047;53.486;10.218;2022-08-30T16:49:58;20.90;88.10
17845;DHT22;9047;53.486;10.218;2022-08-30T16:52:25;20.80;86.60
17845;DHT22;9047;53.486;10.218;2022-08-30T16:54:58;20.70;87.30
17845;DHT22;9047;53.486;10.218;2022-08-30T16:57:26;20.60;87.80
17845;DHT22;9047;53.486;10.218;2022-08-30T17:00:09;20.50;87.80
17845;DHT22;9047;53.486;10.218;2022-08-30T17:02:40;20.50;87.70
17845;DHT22;9047;53.486;10.218;2022-08-30T17:05:38;20.40;87.30
17845;DHT22;9047;53.486;10.218;2022-08-30T17:11:03;20.20;88.10
17845;DHT22;9047;53.486;10.218;2022-08-30T17:13:39;20.20;87.00
17845;DHT22;9047;53.486;10.218;2022-08-30T17:16:08;20.10;86.60
17845;DHT22;9047;53.486;10.218;2022-08-30T17:18:39;20.00;86.00
17845;DHT22;9047;53.486;10.218;2022-08-30T17:21:10;19.90;84.70
17845;DHT22;9047;53.486;10.218;2022-08-30T17:23:49;19.80;85.40
17845;DHT22;9047;53.486;10.218;2022-08-30T17:26:20;19.70;86.80
17845;DHT22;9047;53.486;10.218;2022-08-30T17:29:03;19.60;86.30
17845;DHT22;9047;53.486;10.218;2022-08-30T17:31:50;19.50;85.50
17845;DHT22;9047;53.486;10.218;2022-08-30T17:34:19;19.40;85.70
17845;DHT22;9047;53.486;10.218;2022-08-30T17:36:50;19.30;85.60
17845;DHT22;9047;53.486;10.218;2022-08-30T17:39:42;19.20;86.00
17845;DHT22;9047;53.486;10.218;2022-08-30T17:42:23;19.10;86.20
17845;DHT22;9047;53.486;10.218;2022-08-30T17:44:52;18.90;86.30
17845;DHT22;9047;53.486;10.218;2022-08-30T17:47:21;18.90;86.80
17845;DHT22;9047;53.486;10.218;2022-08-30T17:49:52;18.70;86.90
17845;DHT22;9047;53.486;10.218;2022-08-30T17:52:19;18.60;87.80
17845;DHT22;9047;53.486;10.218;2022-08-30T17:54:59;18.40;87.70
17845;DHT22;9047;53.486;10.218;2022-08-30T17:57:50;18.30;87.80
17845;DHT22;9047;53.486;10.218;2022-08-30T18:00:39;18.20;87.90
17845;DHT22;9047;53.486;10.218;2022-08-30T18:06:52;17.90;89.70
17845;DHT22;9047;53.486;10.218;2022-08-30T18:09:53;17.70;90.10
17845;DHT22;9047;53.486;10.218;2022-08-30T18:13:06;17.60;90.40
17845;DHT22;9047;53.486;10.218;2022-08-30T18:16:00;17.40;90.70
17845;DHT22;9047;53.486;10.218;2022-08-30T18:18:51;17.30;90.80
17845;DHT22;9047;53.486;10.218;2022-08-30T18:21:42;17.20;91.00
17845;DHT22;9047;53.486;10.218;2022-08-30T18:28:05;16.90;91.60
17845;DHT22;9047;53.486;10.218;2022-08-30T18:33:46;16.60;92.20
17845;DHT22;9047;53.486;10.218;2022-08-30T18:42:19;16.30;92.80
17845;DHT22;9047;53.486;10.218;2022-08-30T18:44:54;16.20;92.90
17845;DHT22;9047;53.486;10.218;2022-08-30T18:47:48;16.20;93.30
17845;DHT22;9047;53.486;10.218;2022-08-30T18:50:42;16.10;93.40
17845;DHT22;9047;53.486;10.218;2022-08-30T18:53:39;16.00;93.60
17845;DHT22;9047;53.486;10.218;2022-08-30T18:56:55;15.90;94.00
17845;DHT22;9047;53.486;10.218;2022-08-30T18:59:56;15.80;94.40
17845;DHT22;9047;53.486;10.218;2022-08-30T19:02:39;15.60;94.60
17845;DHT22;9047;53.486;10.218;2022-08-30T19:05:10;15.60;94.90
17845;DHT22;9047;53.486;10.218;2022-08-30T19:08:09;15.50;94.90
17845;DHT22;9047;53.486;10.218;2022-08-30T19:10:40;15.50;95.00
17845;DHT22;9047;53.486;10.218;2022-08-30T19:13:24;15.40;95.30
17845;DHT22;9047;53.486;10.218;2022-08-30T19:16:08;15.30;95.50
17845;DHT22;9047;53.486;10.218;2022-08-30T19:18:57;15.30;95.60
17845;DHT22;9047;53.486;10.218;2022-08-30T19:21:46;15.20;95.70
17845;DHT22;9047;53.486;10.218;2022-08-30T19:28:05;15.10;96.30
17845;DHT22;9047;53.486;10.218;2022-08-30T19:31:01;15.00;96.60
17845;DHT22;9047;53.486;10.218;2022-08-30T19:33:35;15.00;96.80
17845;DHT22;9047;53.486;10.218;2022-08-30T19:36:28;14.90;96.90
17845;DHT22;9047;53.486;10.218;2022-08-30T19:39:18;14.90;97.20
17845;DHT22;9047;53.486;10.218;2022-08-30T19:42:11;14.80;97.40
17845;DHT22;9047;53.486;10.218;2022-08-30T20:04:19;14.30;99.90
17845;DHT22;9047;53.486;10.218;2022-08-30T20:10:11;14.20;99.90
17845;DHT22;9047;53.486;10.218;2022-08-30T20:12:46;14.10;99.90
17845;DHT22;9047;53.486;10.218;2022-08-30T20:22:23;13.80;99.90
17845;DHT22;9047;53.486;10.218;2022-08-30T20:24:57;13.70;99.90
17845;DHT22;9047;53.486;10.218;2022-08-30T20:27:35;13.70;99.90
17845;DHT22;9047;53.486;10.218;2022-08-30T20:30:12;13.60;99.90
17845;DHT22;9047;53.486;10.218;2022-08-30T20:33:23;13.60;99.90
17845;DHT22;9047;53.486;10.218;2022-08-30T20:36:22;13.50;99.90
17845;DHT22;9047;53.486;10.218;2022-08-30T20:42:11;13.50;99.90
17845;DHT22;9047;53.486;10.218;2022-08-30T20:45:05;13.40;99.90
17845;DHT22;9047;53.486;10.218;2022-08-30T20:48:22;13.40;99.90
17845;DHT22;9047;53.486;10.218;2022-08-30T20:51:05;13.40;99.90
17845;DHT22;9047;53.486;10.218;2022-08-30T22:06:12;12.20;99.90
